sensor_id;sensor_type;location;lat;lon;timestamp;P1;durP1;ratioP1;P2;durP2;ratioP2
25627;SDS011;40915;50.826;4.356;2023-09-30T00:01:55;11.65;;;6.97;;
25627;SDS011;40915;50.826;4.356;2023-09-30T00:04:21;14.15;;;8.20;;
25627;SDS011;40915;50.826;4.356;2023-09-30T00:06:47;11.45;;;7.85;;
25627;SDS011;40915;50.826;4.356;2023-09-30T00:09:12;10.77;;;8.15;;
25627;SDS011;40915;50.826;4.356;2023-09-30T00:11:38;9.25;;;7.75;;
25627;SDS011;40915;50.826;4.356;2023-09-30T00:14:04;10.80;;;7.97;;
25627;SDS011;40915;50.826;4.356;2023-09-30T00:16:30;17.02;;;8.70;;
25627;SDS011;40915;50.826;4.356;2023-09-30T00:18:56;12.63;;;8.52;;
25627;SDS011;40915;50.826;4.356;2023-09-30T00:21:23;11.05;;;8.20;;
25627;SDS011;40915;50.826;4.356;2023-09-30T00:23:49;12.30;;;8.48;;
25627;SDS011;40915;50.826;4.356;2023-09-30T00:26:15;12.65;;;8.90;;
25627;SDS011;40915;50.826;4.356;2023-09-30T00:28:40;16.13;;;9.20;;
25627;SDS011;40915;50.826;4.356;2023-09-30T00:31:06;10.32;;;8.70;;
25627;SDS011;40915;50.826;4.356;2023-09-30T00:33:36;11.15;;;8.25;;
25627;SDS011;40915;50.826;4.356;2023-09-30T00:36:08;13.00;;;9.40;;
25627;SDS011;40915;50.826;4.356;2023-09-30T00:38:35;12.45;;;8.45;;
25627;SDS011;40915;50.826;4.356;2023-09-30T00:41:03;13.85;;;9.25;;
25627;SDS011;40915;50.826;4.356;2023-09-30T00:43:29;13.15;;;8.85;;
25627;SDS011;40915;50.826;4.356;2023-09-30T00:46:01;12.18;;;8.73;;
25627;SDS011;40915;50.826;4.356;2023-09-30T00:48:31;15.57;;;9.80;;
25627;SDS011;40915;50.826;4.356;2023-09-30T00:51:00;14.32;;;9.10;;
25627;SDS011;40915;50.826;4.356;2023-09-30T00:53:27;12.65;;;9.02;;
25627;SDS011;40915;50.826;4.356;2023-09-30T00:55:53;12.80;;;8.80;;
25627;SDS011;40915;50.826;4.356;2023-09-30T00:58:21;25.88;;;14.90;;
25627;SDS011;40915;50.826;4.356;2023-09-30T01:00:48;13.77;;;9.82;;
25627;SDS011;40915;50.826;4.356;2023-09-30T01:03:14;14.48;;;8.55;;
25627;SDS011;40915;50.826;4.356;2023-09-30T01:05:40;13.15;;;7.88;;
25627;SDS011;40915;50.826;4.356;2023-09-30T01:08:07;12.23;;;8.05;;
25627;SDS011;40915;50.826;4.356;2023-09-30T01:10:33;16.98;;;7.88;;
25627;SDS011;40915;50.826;4.356;2023-09-30T01:12:59;11.55;;;7.97;;
25627;SDS011;40915;50.826;4.356;2023-09-30T01:15:24;18.02;;;8.65;;
25627;SDS011;40915;50.826;4.356;2023-09-30T01:17:50;12.75;;;8.15;;
25627;SDS011;40915;50.826;4.356;2023-09-30T01:20:16;13.48;;;8.00;;
25627;SDS011;40915;50.826;4.356;2023-09-30T01:22:41;19.17;;;8.60;;
25627;SDS011;40915;50.826;4.356;2023-09-30T01:25:10;10.90;;;6.85;;
25627;SDS011;40915;50.826;4.356;2023-09-30T01:27:36;10.80;;;7.05;;
25627;SDS011;40915;50.826;4.356;2023-09-30T01:30:02;12.45;;;7.40;;
25627;SDS011;40915;50.826;4.356;2023-09-30T01:32:28;14.55;;;6.95;;
25627;SDS011;40915;50.826;4.356;2023-09-30T01:34:53;12.13;;;7.03;;
25627;SDS011;40915;50.826;4.356;2023-09-30T01:37:19;9.65;;;6.50;;
25627;SDS011;40915;50.826;4.356;2023-09-30T01:39:44;12.05;;;6.90;;
25627;SDS011;40915;50.826;4.356;2023-09-30T01:42:10;13.25;;;6.90;;
25627;SDS011;40915;50.826;4.356;2023-09-30T01:44:36;12.68;;;6.57;;
25627;SDS011;40915;50.826;4.356;2023-09-30T01:47:02;10.25;;;6.40;;
25627;SDS011;40915;50.826;4.356;2023-09-30T01:49:27;10.98;;;6.80;;
25627;SDS011;40915;50.826;4.356;2023-09-30T01:51:53;16.67;;;7.20;;
25627;SDS011;40915;50.826;4.356;2023-09-30T01:54:19;14.85;;;6.53;;
25627;SDS011;40915;50.826;4.356;2023-09-30T01:56:44;15.45;;;6.97;;
25627;SDS011;40915;50.826;4.356;2023-09-30T01:59:10;14.50;;;6.82;;
25627;SDS011;40915;50.826;4.356;2023-09-30T02:01:36;13.25;;;6.38;;
25627;SDS011;40915;50.826;4.356;2023-09-30T02:04:01;13.07;;;7.38;;
25627;SDS011;40915;50.826;4.356;2023-09-30T02:06:27;13.65;;;6.63;;
25627;SDS011;40915;50.826;4.356;2023-09-30T02:08:53;13.43;;;6.85;;
25627;SDS011;40915;50.826;4.356;2023-09-30T02:11:18;11.13;;;6.72;;
25627;SDS011;40915;50.826;4.356;2023-09-30T02:13:44;13.60;;;7.22;;
25627;SDS011;40915;50.826;4.356;2023-09-30T02:16:13;12.38;;;6.78;;
25627;SDS011;40915;50.826;4.356;2023-09-30T02:18:39;14.88;;;7.50;;
25627;SDS011;40915;50.826;4.356;2023-09-30T02:21:06;13.95;;;7.40;;
25627;SDS011;40915;50.826;4.356;2023-09-30T02:23:34;16.60;;;7.70;;
25627;SDS011;40915;50.826;4.356;2023-09-30T02:26:00;12.50;;;6.93;;
25627;SDS011;40915;50.826;4.356;2023-09-30T02:28:25;13.35;;;7.95;;
25627;SDS011;40915;50.826;4.356;2023-09-30T02:30:51;14.88;;;7.53;;
25627;SDS011;40915;50.826;4.356;2023-09-30T02:33:18;14.45;;;8.05;;
25627;SDS011;40915;50.826;4.356;2023-09-30T02:35:44;15.55;;;7.45;;
25627;SDS011;40915;50.826;4.356;2023-09-30T02:38:11;17.67;;;7.72;;
25627;SDS011;40915;50.826;4.356;2023-09-30T02:40:37;15.00;;;7.95;;
25627;SDS011;40915;50.826;4.356;2023-09-30T02:43:03;14.93;;;7.80;;
25627;SDS011;40915;50.826;4.356;2023-09-30T02:45:29;14.63;;;8.30;;
25627;SDS011;40915;50.826;4.356;2023-09-30T02:47:55;14.02;;;7.30;;
25627;SDS011;40915;50.826;4.356;2023-09-30T02:50:21;13.10;;;8.00;;
25627;SDS011;40915;50.826;4.356;2023-09-30T02:52:46;16.30;;;7.68;;
25627;SDS011;40915;50.826;4.356;2023-09-30T02:55:12;16.13;;;7.95;;
25627;SDS011;40915;50.826;4.356;2023-09-30T02:57:38;16.50;;;7.88;;
25627;SDS011;40915;50.826;4.356;2023-09-30T03:00:04;16.08;;;7.93;;
25627;SDS011;40915;50.826;4.356;2023-09-30T03:02:51;16.33;;;8.07;;
25627;SDS011;40915;50.826;4.356;2023-09-30T03:05:18;14.18;;;8.18;;
25627;SDS011;40915;50.826;4.356;2023-09-30T03:07:45;15.88;;;8.00;;
25627;SDS011;40915;50.826;4.356;2023-09-30T03:10:11;14.57;;;7.93;;
25627;SDS011;40915;50.826;4.356;2023-09-30T03:12:45;18.15;;;8.52;;
25627;SDS011;40915;50.826;4.356;2023-09-30T03:15:14;15.52;;;7.57;;
25627;SDS011;40915;50.826;4.356;2023-09-30T03:17:40;13.27;;;8.45;;
25627;SDS011;40915;50.826;4.356;2023-09-30T03:20:06;15.95;;;8.65;;
25627;SDS011;40915;50.826;4.356;2023-09-30T03:22:36;15.70;;;8.48;;
25627;SDS011;40915;50.826;4.356;2023-09-30T03:25:09;21.02;;;9.57;;
25627;SDS011;40915;50.826;4.356;2023-09-30T03:27:35;16.33;;;8.48;;
25627;SDS011;40915;50.826;4.356;2023-09-30T03:30:02;19.08;;;8.40;;
25627;SDS011;40915;50.826;4.356;2023-09-30T03:32:30;16.17;;;8.30;;
25627;SDS011;40915;50.826;4.356;2023-09-30T03:34:58;18.67;;;9.52;;
25627;SDS011;40915;50.826;4.356;2023-09-30T03:37:25;19.25;;;8.43;;
25627;SDS011;40915;50.826;4.356;2023-09-30T03:39:54;21.10;;;9.38;;
25627;SDS011;40915;50.826;4.356;2023-09-30T03:42:20;20.30;;;9.05;;
25627;SDS011;40915;50.826;4.356;2023-09-30T03:44:46;18.65;;;9.95;;
25627;SDS011;40915;50.826;4.356;2023-09-30T03:47:13;21.13;;;9.48;;
25627;SDS011;40915;50.826;4.356;2023-09-30T03:49:38;23.70;;;10.73;;
25627;SDS011;40915;50.826;4.356;2023-09-30T03:52:04;20.48;;;10.13;;
25627;SDS011;40915;50.826;4.356;2023-09-30T03:54:31;22.02;;;10.77;;
25627;SDS011;40915;50.826;4.356;2023-09-30T03:56:56;23.67;;;11.10;;
25627;SDS011;40915;50.826;4.356;2023-09-30T03:59:22;23.98;;;10.85;;
25627;SDS011;40915;50.826;4.356;2023-09-30T04:01:48;27.75;;;12.48;;
25627;SDS011;40915;50.826;4.356;2023-09-30T04:04:13;22.00;;;10.25;;
25627;SDS011;40915;50.826;4.356;2023-09-30T04:06:39;25.25;;;11.32;;
25627;SDS011;40915;50.826;4.356;2023-09-30T04:09:05;22.63;;;11.20;;
25627;SDS011;40915;50.826;4.356;2023-09-30T04:11:37;25.33;;;11.57;;
25627;SDS011;40915;50.826;4.356;2023-09-30T04:14:03;24.38;;;11.07;;
25627;SDS011;40915;50.826;4.356;2023-09-30T04:16:35;28.65;;;13.20;;
25627;SDS011;40915;50.826;4.356;2023-09-30T04:19:02;23.77;;;11.30;;
25627;SDS011;40915;50.826;4.356;2023-09-30T04:21:28;23.85;;;10.73;;
25627;SDS011;40915;50.826;4.356;2023-09-30T04:23:57;23.88;;;10.45;;
25627;SDS011;40915;50.826;4.356;2023-09-30T04:26:22;19.92;;;10.80;;
25627;SDS011;40915;50.826;4.356;2023-09-30T04:28:50;25.10;;;11.90;;
25627;SDS011;40915;50.826;4.356;2023-09-30T04:31:16;21.25;;;10.75;;
25627;SDS011;40915;50.826;4.356;2023-09-30T04:33:43;24.52;;;10.48;;
25627;SDS011;40915;50.826;4.356;2023-09-30T04:36:08;21.40;;;11.20;;
25627;SDS011;40915;50.826;4.356;2023-09-30T04:38:35;20.02;;;10.30;;
25627;SDS011;40915;50.826;4.356;2023-09-30T04:41:03;26.60;;;12.35;;
25627;SDS011;40915;50.826;4.356;2023-09-30T04:43:32;24.42;;;10.88;;
25627;SDS011;40915;50.826;4.356;2023-09-30T04:45:58;21.17;;;10.20;;
25627;SDS011;40915;50.826;4.356;2023-09-30T04:48:24;21.38;;;10.27;;
25627;SDS011;40915;50.826;4.356;2023-09-30T04:50:50;23.90;;;10.60;;
25627;SDS011;40915;50.826;4.356;2023-09-30T04:53:16;23.52;;;10.60;;
25627;SDS011;40915;50.826;4.356;2023-09-30T04:55:46;26.35;;;10.55;;
25627;SDS011;40915;50.826;4.356;2023-09-30T04:58:15;21.77;;;10.55;;
25627;SDS011;40915;50.826;4.356;2023-09-30T05:00:41;23.30;;;10.13;;
25627;SDS011;40915;50.826;4.356;2023-09-30T05:03:06;24.60;;;9.35;;
25627;SDS011;40915;50.826;4.356;2023-09-30T05:05:32;19.92;;;10.15;;
25627;SDS011;40915;50.826;4.356;2023-09-30T05:07:59;24.20;;;9.88;;
25627;SDS011;40915;50.826;4.356;2023-09-30T05:10:25;21.73;;;9.98;;
25627;SDS011;40915;50.826;4.356;2023-09-30T05:12:50;25.35;;;10.48;;
25627;SDS011;40915;50.826;4.356;2023-09-30T05:15:19;25.92;;;10.25;;
25627;SDS011;40915;50.826;4.356;2023-09-30T05:17:45;24.67;;;9.45;;
25627;SDS011;40915;50.826;4.356;2023-09-30T05:20:12;23.60;;;9.35;;
25627;SDS011;40915;50.826;4.356;2023-09-30T05:22:39;21.70;;;9.10;;
25627;SDS011;40915;50.826;4.356;2023-09-30T05:25:06;23.13;;;9.82;;
25627;SDS011;40915;50.826;4.356;2023-09-30T05:27:32;24.20;;;8.93;;
25627;SDS011;40915;50.826;4.356;2023-09-30T05:29:58;27.20;;;9.68;;
25627;SDS011;40915;50.826;4.356;2023-09-30T05:32:24;20.67;;;8.63;;
25627;SDS011;40915;50.826;4.356;2023-09-30T05:34:52;19.35;;;8.27;;
25627;SDS011;40915;50.826;4.356;2023-09-30T05:37:19;24.55;;;9.15;;
25627;SDS011;40915;50.826;4.356;2023-09-30T05:39:46;22.42;;;8.30;;
25627;SDS011;40915;50.826;4.356;2023-09-30T05:42:13;19.02;;;8.05;;
25627;SDS011;40915;50.826;4.356;2023-09-30T05:44:40;25.08;;;8.93;;
25627;SDS011;40915;50.826;4.356;2023-09-30T05:47:07;25.08;;;8.52;;
25627;SDS011;40915;50.826;4.356;2023-09-30T05:49:33;27.90;;;8.32;;
25627;SDS011;40915;50.826;4.356;2023-09-30T05:51:59;19.95;;;8.38;;
25627;SDS011;40915;50.826;4.356;2023-09-30T05:54:25;25.48;;;9.20;;
25627;SDS011;40915;50.826;4.356;2023-09-30T05:56:51;21.30;;;8.30;;
25627;SDS011;40915;50.826;4.356;2023-09-30T05:59:17;26.73;;;8.18;;
25627;SDS011;40915;50.826;4.356;2023-09-30T06:01:43;20.00;;;8.10;;
25627;SDS011;40915;50.826;4.356;2023-09-30T06:04:11;24.25;;;8.43;;
25627;SDS011;40915;50.826;4.356;2023-09-30T06:06:37;20.10;;;7.45;;
25627;SDS011;40915;50.826;4.356;2023-09-30T06:09:03;22.95;;;8.30;;
25627;SDS011;40915;50.826;4.356;2023-09-30T06:11:32;22.88;;;8.20;;
25627;SDS011;40915;50.826;4.356;2023-09-30T06:14:01;20.98;;;8.07;;
25627;SDS011;40915;50.826;4.356;2023-09-30T06:16:27;23.42;;;8.07;;
25627;SDS011;40915;50.826;4.356;2023-09-30T06:18:54;25.77;;;7.63;;
25627;SDS011;40915;50.826;4.356;2023-09-30T06:21:20;23.02;;;7.35;;
25627;SDS011;40915;50.826;4.356;2023-09-30T06:23:50;18.52;;;7.82;;
25627;SDS011;40915;50.826;4.356;2023-09-30T06:26:19;25.80;;;7.75;;
25627;SDS011;40915;50.826;4.356;2023-09-30T06:28:46;19.85;;;7.45;;
25627;SDS011;40915;50.826;4.356;2023-09-30T06:31:12;22.40;;;8.18;;
25627;SDS011;40915;50.826;4.356;2023-09-30T06:33:38;20.27;;;9.13;;
25627;SDS011;40915;50.826;4.356;2023-09-30T06:36:08;21.77;;;10.02;;
25627;SDS011;40915;50.826;4.356;2023-09-30T06:38:34;25.58;;;11.20;;
25627;SDS011;40915;50.826;4.356;2023-09-30T06:41:02;21.63;;;11.88;;
25627;SDS011;40915;50.826;4.356;2023-09-30T06:43:28;25.40;;;12.43;;
25627;SDS011;40915;50.826;4.356;2023-09-30T06:45:54;28.05;;;11.93;;
25627;SDS011;40915;50.826;4.356;2023-09-30T06:48:21;25.98;;;12.82;;
25627;SDS011;40915;50.826;4.356;2023-09-30T06:50:49;26.92;;;11.40;;
25627;SDS011;40915;50.826;4.356;2023-09-30T06:53:17;25.13;;;11.32;;
25627;SDS011;40915;50.826;4.356;2023-09-30T06:55:44;26.08;;;10.90;;
25627;SDS011;40915;50.826;4.356;2023-09-30T06:58:10;24.52;;;10.52;;
25627;SDS011;40915;50.826;4.356;2023-09-30T07:00:40;18.65;;;10.00;;
25627;SDS011;40915;50.826;4.356;2023-09-30T07:03:07;22.80;;;10.40;;
25627;SDS011;40915;50.826;4.356;2023-09-30T07:05:35;27.25;;;9.63;;
25627;SDS011;40915;50.826;4.356;2023-09-30T07:08:01;16.65;;;8.50;;
25627;SDS011;40915;50.826;4.356;2023-09-30T07:10:27;22.63;;;8.98;;
25627;SDS011;40915;50.826;4.356;2023-09-30T07:12:54;23.75;;;8.25;;
25627;SDS011;40915;50.826;4.356;2023-09-30T07:15:20;17.60;;;7.43;;
25627;SDS011;40915;50.826;4.356;2023-09-30T07:17:46;15.52;;;6.95;;
25627;SDS011;40915;50.826;4.356;2023-09-30T07:20:12;23.08;;;7.40;;
25627;SDS011;40915;50.826;4.356;2023-09-30T07:22:39;18.42;;;6.25;;
25627;SDS011;40915;50.826;4.356;2023-09-30T07:25:04;17.08;;;5.60;;
25627;SDS011;40915;50.826;4.356;2023-09-30T07:27:30;21.35;;;6.30;;
25627;SDS011;40915;50.826;4.356;2023-09-30T07:29:56;18.40;;;5.80;;
25627;SDS011;40915;50.826;4.356;2023-09-30T07:32:22;16.48;;;5.82;;
25627;SDS011;40915;50.826;4.356;2023-09-30T07:34:49;17.15;;;6.05;;
25627;SDS011;40915;50.826;4.356;2023-09-30T07:37:15;17.90;;;6.22;;
25627;SDS011;40915;50.826;4.356;2023-09-30T07:39:42;19.80;;;6.75;;
25627;SDS011;40915;50.826;4.356;2023-09-30T07:42:08;13.40;;;5.30;;
25627;SDS011;40915;50.826;4.356;2023-09-30T07:44:34;17.88;;;5.90;;
25627;SDS011;40915;50.826;4.356;2023-09-30T07:47:02;18.38;;;6.32;;
25627;SDS011;40915;50.826;4.356;2023-09-30T07:49:29;19.17;;;5.32;;
25627;SDS011;40915;50.826;4.356;2023-09-30T07:51:55;15.70;;;5.43;;
25627;SDS011;40915;50.826;4.356;2023-09-30T07:54:20;17.48;;;5.28;;
25627;SDS011;40915;50.826;4.356;2023-09-30T07:56:46;17.25;;;5.07;;
25627;SDS011;40915;50.826;4.356;2023-09-30T07:59:12;16.17;;;5.88;;
25627;SDS011;40915;50.826;4.356;2023-09-30T08:01:38;20.77;;;6.00;;
25627;SDS011;40915;50.826;4.356;2023-09-30T08:04:04;17.67;;;5.70;;
25627;SDS011;40915;50.826;4.356;2023-09-30T08:06:29;17.10;;;5.43;;
25627;SDS011;40915;50.826;4.356;2023-09-30T08:08:56;19.95;;;5.72;;
25627;SDS011;40915;50.826;4.356;2023-09-30T08:11:22;16.33;;;5.50;;
25627;SDS011;40915;50.826;4.356;2023-09-30T08:13:48;16.73;;;5.03;;
25627;SDS011;40915;50.826;4.356;2023-09-30T08:16:13;23.40;;;6.85;;
25627;SDS011;40915;50.826;4.356;2023-09-30T08:18:39;18.80;;;6.43;;
25627;SDS011;40915;50.826;4.356;2023-09-30T08:21:08;19.08;;;6.18;;
25627;SDS011;40915;50.826;4.356;2023-09-30T08:23:35;18.98;;;5.93;;
25627;SDS011;40915;50.826;4.356;2023-09-30T08:26:01;16.23;;;5.85;;
25627;SDS011;40915;50.826;4.356;2023-09-30T08:28:26;20.92;;;6.25;;
25627;SDS011;40915;50.826;4.356;2023-09-30T08:30:52;17.80;;;7.25;;
25627;SDS011;40915;50.826;4.356;2023-09-30T08:33:22;16.80;;;6.38;;
25627;SDS011;40915;50.826;4.356;2023-09-30T08:35:48;16.40;;;6.15;;
25627;SDS011;40915;50.826;4.356;2023-09-30T08:38:14;18.65;;;6.32;;
25627;SDS011;40915;50.826;4.356;2023-09-30T08:40:40;16.58;;;6.45;;
25627;SDS011;40915;50.826;4.356;2023-09-30T08:43:06;20.75;;;6.32;;
25627;SDS011;40915;50.826;4.356;2023-09-30T08:45:36;19.77;;;6.13;;
25627;SDS011;40915;50.826;4.356;2023-09-30T08:48:06;16.73;;;5.50;;
25627;SDS011;40915;50.826;4.356;2023-09-30T08:50:33;18.42;;;5.45;;
25627;SDS011;40915;50.826;4.356;2023-09-30T08:53:00;19.83;;;6.43;;
25627;SDS011;40915;50.826;4.356;2023-09-30T08:55:28;18.45;;;5.20;;
25627;SDS011;40915;50.826;4.356;2023-09-30T08:57:54;17.05;;;5.93;;
25627;SDS011;40915;50.826;4.356;2023-09-30T09:00:22;18.27;;;5.97;;
25627;SDS011;40915;50.826;4.356;2023-09-30T09:02:47;24.63;;;10.57;;
25627;SDS011;40915;50.826;4.356;2023-09-30T09:05:15;24.85;;;6.57;;
25627;SDS011;40915;50.826;4.356;2023-09-30T09:07:41;19.10;;;5.90;;
25627;SDS011;40915;50.826;4.356;2023-09-30T09:12:40;19.08;;;6.13;;
25627;SDS011;40915;50.826;4.356;2023-09-30T09:15:07;21.10;;;6.63;;
25627;SDS011;40915;50.826;4.356;2023-09-30T09:17:44;20.45;;;5.82;;
25627;SDS011;40915;50.826;4.356;2023-09-30T09:20:11;21.70;;;5.70;;
25627;SDS011;40915;50.826;4.356;2023-09-30T09:22:45;22.20;;;6.78;;
25627;SDS011;40915;50.826;4.356;2023-09-30T09:25:18;16.67;;;5.93;;
25627;SDS011;40915;50.826;4.356;2023-09-30T09:27:44;15.40;;;5.82;;
25627;SDS011;40915;50.826;4.356;2023-09-30T09:30:28;18.98;;;6.43;;
25627;SDS011;40915;50.826;4.356;2023-09-30T09:33:01;16.42;;;5.70;;
25627;SDS011;40915;50.826;4.356;2023-09-30T09:35:32;15.45;;;5.82;;
25627;SDS011;40915;50.826;4.356;2023-09-30T09:40:34;16.55;;;5.63;;
25627;SDS011;40915;50.826;4.356;2023-09-30T09:43:03;14.98;;;5.18;;
25627;SDS011;40915;50.826;4.356;2023-09-30T09:45:30;17.13;;;5.35;;
25627;SDS011;40915;50.826;4.356;2023-09-30T09:47:58;18.35;;;6.03;;
25627;SDS011;40915;50.826;4.356;2023-09-30T09:50:24;18.60;;;5.07;;
25627;SDS011;40915;50.826;4.356;2023-09-30T09:52:51;16.95;;;5.15;;
25627;SDS011;40915;50.826;4.356;2023-09-30T09:55:18;14.80;;;4.38;;
25627;SDS011;40915;50.826;4.356;2023-09-30T09:57:47;14.00;;;4.20;;
25627;SDS011;40915;50.826;4.356;2023-09-30T10:00:17;16.50;;;5.07;;
25627;SDS011;40915;50.826;4.356;2023-09-30T10:02:46;13.63;;;5.10;;
25627;SDS011;40915;50.826;4.356;2023-09-30T10:05:12;12.18;;;4.82;;
25627;SDS011;40915;50.826;4.356;2023-09-30T10:07:41;12.57;;;4.53;;
25627;SDS011;40915;50.826;4.356;2023-09-30T10:10:13;15.23;;;5.05;;
25627;SDS011;40915;50.826;4.356;2023-09-30T10:12:41;15.90;;;5.28;;
25627;SDS011;40915;50.826;4.356;2023-09-30T10:18:01;13.20;;;4.43;;
25627;SDS011;40915;50.826;4.356;2023-09-30T10:20:29;16.30;;;5.05;;
25627;SDS011;40915;50.826;4.356;2023-09-30T10:25:48;13.48;;;4.97;;
25627;SDS011;40915;50.826;4.356;2023-09-30T10:36:33;12.90;;;4.22;;
25627;SDS011;40915;50.826;4.356;2023-09-30T10:39:03;14.60;;;4.30;;
25627;SDS011;40915;50.826;4.356;2023-09-30T10:46:47;12.15;;;3.65;;
25627;SDS011;40915;50.826;4.356;2023-09-30T10:51:52;15.70;;;4.50;;
25627;SDS011;40915;50.826;4.356;2023-09-30T10:54:29;11.93;;;3.80;;
25627;SDS011;40915;50.826;4.356;2023-09-30T10:56:58;9.05;;;3.50;;
25627;SDS011;40915;50.826;4.356;2023-09-30T10:59:28;12.88;;;3.63;;
25627;SDS011;40915;50.826;4.356;2023-09-30T11:01:59;21.70;;;9.20;;
25627;SDS011;40915;50.826;4.356;2023-09-30T11:04:25;13.63;;;4.55;;
25627;SDS011;40915;50.826;4.356;2023-09-30T11:06:53;15.60;;;3.90;;
25627;SDS011;40915;50.826;4.356;2023-09-30T11:09:20;9.20;;;2.97;;
25627;SDS011;40915;50.826;4.356;2023-09-30T11:11:47;13.32;;;4.10;;
25627;SDS011;40915;50.826;4.356;2023-09-30T11:16:50;11.45;;;3.45;;
25627;SDS011;40915;50.826;4.356;2023-09-30T11:19:17;10.43;;;3.90;;
25627;SDS011;40915;50.826;4.356;2023-09-30T11:21:46;13.02;;;3.42;;
25627;SDS011;40915;50.826;4.356;2023-09-30T11:24:17;13.27;;;4.72;;
25627;SDS011;40915;50.826;4.356;2023-09-30T11:26:44;10.55;;;3.80;;
25627;SDS011;40915;50.826;4.356;2023-09-30T11:29:14;13.18;;;4.68;;
25627;SDS011;40915;50.826;4.356;2023-09-30T11:31:41;11.48;;;3.95;;
25627;SDS011;40915;50.826;4.356;2023-09-30T11:34:09;12.02;;;3.88;;
25627;SDS011;40915;50.826;4.356;2023-09-30T11:36:37;9.63;;;3.40;;
25627;SDS011;40915;50.826;4.356;2023-09-30T11:39:04;10.95;;;3.95;;
25627;SDS011;40915;50.826;4.356;2023-09-30T11:41:34;8.68;;;3.65;;
25627;SDS011;40915;50.826;4.356;2023-09-30T11:46:46;12.02;;;3.60;;
25627;SDS011;40915;50.826;4.356;2023-09-30T11:49:39;11.15;;;3.45;;
25627;SDS011;40915;50.826;4.356;2023-09-30T11:54:36;9.10;;;3.90;;
25627;SDS011;40915;50.826;4.356;2023-09-30T11:57:08;10.25;;;3.58;;
25627;SDS011;40915;50.826;4.356;2023-09-30T11:59:37;10.18;;;3.25;;
25627;SDS011;40915;50.826;4.356;2023-09-30T12:02:06;11.13;;;3.45;;
25627;SDS011;40915;50.826;4.356;2023-09-30T12:04:33;9.82;;;3.72;;
25627;SDS011;40915;50.826;4.356;2023-09-30T12:07:00;9.30;;;3.60;;
25627;SDS011;40915;50.826;4.356;2023-09-30T12:09:26;11.90;;;3.92;;
25627;SDS011;40915;50.826;4.356;2023-09-30T12:11:53;9.25;;;3.60;;
25627;SDS011;40915;50.826;4.356;2023-09-30T12:14:19;12.23;;;4.75;;
25627;SDS011;40915;50.826;4.356;2023-09-30T12:16:48;11.32;;;3.72;;
25627;SDS011;40915;50.826;4.356;2023-09-30T12:19:15;15.80;;;4.28;;
25627;SDS011;40915;50.826;4.356;2023-09-30T12:21:43;10.02;;;3.55;;
25627;SDS011;40915;50.826;4.356;2023-09-30T12:24:12;11.40;;;3.63;;
25627;SDS011;40915;50.826;4.356;2023-09-30T12:26:41;10.65;;;3.50;;
25627;SDS011;40915;50.826;4.356;2023-09-30T12:29:19;9.77;;;3.30;;
25627;SDS011;40915;50.826;4.356;2023-09-30T12:31:47;12.50;;;3.47;;
25627;SDS011;40915;50.826;4.356;2023-09-30T12:34:14;9.95;;;3.92;;
25627;SDS011;40915;50.826;4.356;2023-09-30T12:36:40;10.88;;;3.72;;
25627;SDS011;40915;50.826;4.356;2023-09-30T12:39:07;10.60;;;3.72;;
25627;SDS011;40915;50.826;4.356;2023-09-30T12:41:39;6.95;;;2.97;;
25627;SDS011;40915;50.826;4.356;2023-09-30T12:44:07;10.70;;;3.35;;
25627;SDS011;40915;50.826;4.356;2023-09-30T12:46:33;10.73;;;3.50;;
25627;SDS011;40915;50.826;4.356;2023-09-30T12:49:02;9.57;;;3.22;;
25627;SDS011;40915;50.826;4.356;2023-09-30T12:51:28;9.77;;;3.28;;
25627;SDS011;40915;50.826;4.356;2023-09-30T12:53:54;8.52;;;3.25;;
25627;SDS011;40915;50.826;4.356;2023-09-30T12:56:20;11.52;;;2.92;;
25627;SDS011;40915;50.826;4.356;2023-09-30T12:58:46;9.23;;;3.05;;
25627;SDS011;40915;50.826;4.356;2023-09-30T13:01:12;10.93;;;3.30;;
25627;SDS011;40915;50.826;4.356;2023-09-30T13:03:38;8.05;;;2.63;;
25627;SDS011;40915;50.826;4.356;2023-09-30T13:06:04;8.25;;;2.95;;
25627;SDS011;40915;50.826;4.356;2023-09-30T13:08:29;10.57;;;3.15;;
25627;SDS011;40915;50.826;4.356;2023-09-30T13:10:59;6.85;;;2.95;;
25627;SDS011;40915;50.826;4.356;2023-09-30T13:13:27;6.70;;;2.58;;
25627;SDS011;40915;50.826;4.356;2023-09-30T13:15:57;8.73;;;3.40;;
25627;SDS011;40915;50.826;4.356;2023-09-30T13:18:23;13.40;;;3.63;;
25627;SDS011;40915;50.826;4.356;2023-09-30T13:20:49;12.05;;;3.15;;
25627;SDS011;40915;50.826;4.356;2023-09-30T13:23:17;11.25;;;2.55;;
25627;SDS011;40915;50.826;4.356;2023-09-30T13:25:44;7.65;;;2.72;;
25627;SDS011;40915;50.826;4.356;2023-09-30T13:28:10;13.70;;;4.28;;
25627;SDS011;40915;50.826;4.356;2023-09-30T13:30:35;7.40;;;3.10;;
25627;SDS011;40915;50.826;4.356;2023-09-30T13:33:02;8.32;;;3.10;;
25627;SDS011;40915;50.826;4.356;2023-09-30T13:35:28;14.70;;;3.40;;
25627;SDS011;40915;50.826;4.356;2023-09-30T13:37:54;12.73;;;3.67;;
25627;SDS011;40915;50.826;4.356;2023-09-30T13:40:20;8.27;;;3.10;;
25627;SDS011;40915;50.826;4.356;2023-09-30T13:42:45;7.95;;;3.03;;
25627;SDS011;40915;50.826;4.356;2023-09-30T13:45:11;8.90;;;2.78;;
25627;SDS011;40915;50.826;4.356;2023-09-30T13:47:37;9.10;;;2.92;;
25627;SDS011;40915;50.826;4.356;2023-09-30T13:50:04;6.75;;;2.72;;
25627;SDS011;40915;50.826;4.356;2023-09-30T13:52:32;9.68;;;3.53;;
25627;SDS011;40915;50.826;4.356;2023-09-30T13:54:59;7.90;;;3.15;;
25627;SDS011;40915;50.826;4.356;2023-09-30T13:57:24;8.82;;;2.80;;
25627;SDS011;40915;50.826;4.356;2023-09-30T13:59:50;11.73;;;3.10;;
25627;SDS011;40915;50.826;4.356;2023-09-30T14:02:16;7.82;;;2.63;;
25627;SDS011;40915;50.826;4.356;2023-09-30T14:04:41;9.05;;;3.67;;
25627;SDS011;40915;50.826;4.356;2023-09-30T14:07:07;9.32;;;4.93;;
25627;SDS011;40915;50.826;4.356;2023-09-30T14:09:33;7.82;;;3.45;;
25627;SDS011;40915;50.826;4.356;2023-09-30T14:11:59;11.93;;;2.70;;
25627;SDS011;40915;50.826;4.356;2023-09-30T14:14:25;9.18;;;2.63;;
25627;SDS011;40915;50.826;4.356;2023-09-30T14:16:51;9.98;;;3.38;;
25627;SDS011;40915;50.826;4.356;2023-09-30T14:19:17;8.80;;;2.90;;
25627;SDS011;40915;50.826;4.356;2023-09-30T14:21:42;8.02;;;2.60;;
25627;SDS011;40915;50.826;4.356;2023-09-30T14:24:08;9.82;;;3.15;;
25627;SDS011;40915;50.826;4.356;2023-09-30T14:26:34;7.45;;;3.50;;
25627;SDS011;40915;50.826;4.356;2023-09-30T14:29:01;10.80;;;4.18;;
25627;SDS011;40915;50.826;4.356;2023-09-30T14:31:26;13.07;;;4.78;;
25627;SDS011;40915;50.826;4.356;2023-09-30T14:33:52;8.48;;;2.58;;
25627;SDS011;40915;50.826;4.356;2023-09-30T14:36:18;8.90;;;3.20;;
25627;SDS011;40915;50.826;4.356;2023-09-30T14:38:44;8.32;;;2.85;;
25627;SDS011;40915;50.826;4.356;2023-09-30T14:41:10;11.93;;;2.83;;
25627;SDS011;40915;50.826;4.356;2023-09-30T14:43:39;9.10;;;2.92;;
25627;SDS011;40915;50.826;4.356;2023-09-30T14:46:05;8.80;;;3.33;;
25627;SDS011;40915;50.826;4.356;2023-09-30T14:48:31;8.18;;;2.80;;
25627;SDS011;40915;50.826;4.356;2023-09-30T14:50:57;10.38;;;2.72;;
25627;SDS011;40915;50.826;4.356;2023-09-30T14:53:25;10.80;;;3.50;;
25627;SDS011;40915;50.826;4.356;2023-09-30T14:55:51;9.52;;;3.78;;
25627;SDS011;40915;50.826;4.356;2023-09-30T14:58:17;10.13;;;2.70;;
25627;SDS011;40915;50.826;4.356;2023-09-30T15:00:42;6.80;;;2.67;;
25627;SDS011;40915;50.826;4.356;2023-09-30T15:03:08;11.82;;;3.45;;
25627;SDS011;40915;50.826;4.356;2023-09-30T15:05:34;8.70;;;2.83;;
25627;SDS011;40915;50.826;4.356;2023-09-30T15:08:00;7.97;;;2.90;;
25627;SDS011;40915;50.826;4.356;2023-09-30T15:10:29;9.13;;;3.03;;